Big Glory — H9IF — position and weather

sailwx.info

Track history (hours):
 
Tides and Currents Weather Stations Pressure Air Temp Water Temp Dewpoint Dewpoint Depression Visibility Wind Speed Wind Dir Waves Ship Positions

Big Glory

Last reported at 2017-Mar-26 23:27 UTC. Time now 2017-Mar-29 15:08 UTC.
Position N 02°04' E 102°07'.

Length 190 m; draft 11.2 m.

Type: Ship. MMSI: 354285000.

Date/timePositionNaut miles runAvg speedWind from/ knotsBaromVisibWave heightAir tempDewpointWater temp
2017-Mar-26 23:27N 02°04' E 102°07'10 9.4
2017-Mar-26 22:22N 01°58' E 102°15'8 9.9
2017-Mar-26 21:33N 01°54' E 102°22'1111.0
2017-Mar-26 20:33N 01°50' E 102°32'1211.8
2017-Mar-26 19:34N 01°45' E 102°43'1312.0
2017-Mar-26 18:30N 01°40' E 102°55'3210.7
2017-Mar-26 15:32N 01°19' E 103°19'9 9.1
2017-Mar-26 14:34N 01°14' E 103°26'1010.1
2017-Mar-26 13:33N 01°12' E 103°36'1010.0
2017-Mar-26 12:34N 01°09' E 103°46'1211.9
2017-Mar-26 11:34N 01°15' E 103°56'3 2.4
2017-Mar-26 10:26N 01°17' E 103°58'0 0.2
2017-Mar-26 09:26N 01°17' E 103°58'0 0.1
2017-Mar-26 08:32N 01°17' E 103°58'0 0.1
2017-Mar-26 07:32N 01°17' E 103°58'0 0.0
2017-Mar-26 06:29N 01°17' E 103°58'0 0.0
2017-Mar-26 05:32N 01°17' E 103°58'0 0.0
2017-Mar-26 04:32N 01°17' E 103°58'0 0.2
2017-Mar-26 03:32N 01°17' E 103°58'0 0.1
2017-Mar-26 02:29N 01°17' E 103°58'0 0.0
2017-Mar-26 01:29N 01°17' E 103°58'0 0.1
2017-Mar-26 00:32N 01°17' E 103°58'0 0.1
2017-Mar-25 23:33N 01°17' E 103°58'5 5.1
2017-Mar-25 22:32N 01°16' E 104°03'  
Track history (hours):
 
Tides and Currents Weather Stations Pressure Air Temp Water Temp Dewpoint Dewpoint Depression Visibility Wind Speed Wind Dir Waves Ship Positions

Big Glory

Last reported at 2017-Mar-26 23:27 UTC. Time now 2017-Mar-29 15:08 UTC.
Position N 02°04' E 102°07'.

Length 190 m; draft 11.2 m.

Type: Ship. MMSI: 354285000.

Date/timePositionNaut miles runAvg speedWind from/ knotsBaromVisibWave heightAir tempDewpointWater temp
2017-Mar-26 23:27N 02°04' E 102°07'10 9.4
2017-Mar-26 22:22N 01°58' E 102°15'8 9.9
2017-Mar-26 21:33N 01°54' E 102°22'1111.0
2017-Mar-26 20:33N 01°50' E 102°32'1211.8
2017-Mar-26 19:34N 01°45' E 102°43'1312.0
2017-Mar-26 18:30N 01°40' E 102°55'3210.7
2017-Mar-26 15:32N 01°19' E 103°19'9 9.1
2017-Mar-26 14:34N 01°14' E 103°26'1010.1
2017-Mar-26 13:33N 01°12' E 103°36'1010.0
2017-Mar-26 12:34N 01°09' E 103°46'1211.9
2017-Mar-26 11:34N 01°15' E 103°56'3 2.4
2017-Mar-26 10:26N 01°17' E 103°58'0 0.2
2017-Mar-26 09:26N 01°17' E 103°58'0 0.1
2017-Mar-26 08:32N 01°17' E 103°58'0 0.1
2017-Mar-26 07:32N 01°17' E 103°58'0 0.0
2017-Mar-26 06:29N 01°17' E 103°58'0 0.0
2017-Mar-26 05:32N 01°17' E 103°58'0 0.0
2017-Mar-26 04:32N 01°17' E 103°58'0 0.2
2017-Mar-26 03:32N 01°17' E 103°58'0 0.1
2017-Mar-26 02:29N 01°17' E 103°58'0 0.0
2017-Mar-26 01:29N 01°17' E 103°58'0 0.1
2017-Mar-26 00:32N 01°17' E 103°58'0 0.1
2017-Mar-25 23:33N 01°17' E 103°58'5 5.1
2017-Mar-25 22:32N 01°16' E 104°03'  

Dump ship's entire track history